McIntosh, Minnesota
Current Conditions -  °F | °C
As of 3:35 PM on Thursday 18 Dec 2014 (Local Time) from KFSE Reporting Station
Overcast Overcast  
Wind Chill: 11°   Ceiling: 6500
Heat Index: 18°   Visibility: 10mi
Dew Point: 16°   Wind: 5mph
Humidity: 93%   Direction: 130°SE
Pressure: 30.19"   Gusts: NA
Location:  47.64°N, 95.89°W
Report Text: KFSE 182135Z AUTO 13004KT 10SM OVC065 M08/M09 A3019 RMK AO2
Loading
Personal Weather Stations






























Interactive Weather Map New forecast layout! Learn more

10-Day Weather Forecast

Advertisements
Track Severe Weather on mobile